Time;durP1;ratioP1;P1;durP2;ratioP2;P2;SDS_P1;SDS_P2;PMS_P1;PMS_P2;Temp;Humidity;BMP_temperature;BMP_pressure;BME280_temperature;BME280_humidity;BME280_pressure;Samples;Min_cycle;Max_cycle;Signal;HPM_P1;HPM_P2
2023/06/09 00:02:24;;;;;;;8.68;5.00;;;;;;;22.61;69.27;99225.44;4476314;31;33777;-65
2023/06/09 00:04:52;;;;;;;13.55;6.97;;;;;;;22.45;70.26;99229.38;4480286;31;33017;-66
2023/06/09 00:07:22;;;;;;;9.50;5.72;;;;;;;22.55;69.81;99229.00;4480805;31;33809;-64
2023/06/09 00:09:49;;;;;;;13.48;5.82;;;;;;;22.84;68.82;99241.44;4481349;31;34190;-65
2023/06/09 00:12:17;;;;;;;7.00;4.15;;;;;;;22.53;69.68;99237.34;4481222;31;34615;-63
2023/06/09 00:14:45;;;;;;;7.35;3.85;;;;;;;22.35;68.14;99241.72;4481855;31;34848;-64
2023/06/09 00:17:13;;;;;;;4.45;2.47;;;;;;;21.44;69.75;99230.84;4481334;31;33715;-64
2023/06/09 00:19:42;;;;;;;4.85;2.42;;;;;;;21.42;68.88;99225.59;4480593;32;32992;-68
2023/06/09 00:22:13;;;;;;;4.70;2.53;;;;;;;21.30;68.90;99227.12;4471335;31;33524;-67
2023/06/09 00:24:44;;;;;;;5.35;2.87;;;;;;;21.21;70.11;99231.03;4480028;31;33835;-65
2023/06/09 00:27:11;;;;;;;8.93;2.97;;;;;;;21.60;68.69;99241.44;4480414;31;34457;-65
2023/06/09 00:29:39;;;;;;;5.62;2.97;;;;;;;21.85;67.22;99245.38;4475907;31;33079;-64
2023/06/09 00:32:08;;;;;;;13.85;3.58;;;;;;;22.20;65.75;99244.56;4481577;32;32108;-64
2023/06/09 00:34:36;;;;;;;7.25;3.90;;;;;;;22.47;65.23;99237.34;4480839;31;33910;-64
2023/06/09 00:37:04;;;;;;;4.07;2.37;;;;;;;22.62;65.18;99231.75;4481420;32;32675;-67
2023/06/09 00:39:32;;;;;;;5.93;2.92;;;;;;;22.44;66.73;99241.34;4482042;32;34791;-66
2023/06/09 00:42:03;;;;;;;12.05;3.15;;;;;;;22.68;65.04;99239.94;4476222;32;32203;-64
2023/06/09 00:44:30;;;;;;;5.10;2.87;;;;;;;22.78;64.11;99229.47;4479741;31;33978;-67
2023/06/09 00:46:58;;;;;;;6.10;2.42;;;;;;;22.74;64.88;99222.75;4479603;31;33669;-64
2023/06/09 00:49:26;;;;;;;10.85;3.30;;;;;;;22.94;63.74;99206.44;4481954;32;34422;-64
2023/06/09 00:51:53;;;;;;;2.95;2.03;;;;;;;22.99;64.01;99205.84;4475302;31;33964;-66
2023/06/09 00:54:21;;;;;;;5.70;2.37;;;;;;;23.01;63.81;99203.72;4474185;31;33792;-65
2023/06/09 00:56:50;;;;;;;4.57;2.65;;;;;;;22.96;63.55;99201.63;4478674;31;33642;-65
2023/06/09 00:59:17;;;;;;;4.47;2.53;;;;;;;22.84;63.84;99210.59;4481913;31;33281;-65
2023/06/09 01:01:45;;;;;;;6.18;3.22;;;;;;;22.73;63.67;99201.97;4479705;31;34851;-64
2023/06/09 01:04:13;;;;;;;6.43;3.60;;;;;;;22.84;63.56;99200.53;4483729;31;33924;-64
2023/06/09 01:07:00;;;;;;;8.35;2.35;;;;;;;22.58;64.35;99186.84;4480603;31;32541;-64
2023/06/09 01:09:33;;;;;;;10.48;2.45;;;;;;;22.76;63.58;99178.87;4481576;31;32192;-65
2023/06/09 01:12:13;;;;;;;12.37;2.97;;;;;;;22.71;63.66;99182.25;4478390;32;34275;-66
2023/06/09 01:14:56;;;;;;;5.55;2.90;;;;;;;22.79;63.49;99175.75;4478091;31;35280;-66
2023/06/09 01:17:25;;;;;;;8.07;3.55;;;;;;;22.78;63.12;99157.69;4475197;32;31994;-63
2023/06/09 01:19:57;;;;;;;4.65;2.70;;;;;;;22.78;63.05;99144.91;4479969;31;34437;-71
2023/06/09 01:22:50;;;;;;;6.25;2.62;;;;;;;22.64;63.91;99145.09;4475818;31;33384;-68
2023/06/09 01:25:31;;;;;;;5.60;3.37;;;;;;;22.64;63.55;99145.09;4478126;31;34038;-68
2023/06/09 01:28:02;;;;;;;5.40;2.85;;;;;;;22.71;63.11;99144.06;4481925;31;34714;-69
2023/06/09 01:30:32;;;;;;;8.80;3.25;;;;;;;22.73;62.66;99146.59;4472510;31;33204;-71
2023/06/09 01:33:04;;;;;;;4.07;2.58;;;;;;;22.73;62.93;99146.59;4477929;32;33883;-66
2023/06/09 01:35:34;;;;;;;5.35;2.35;;;;;;;22.67;62.78;99147.41;4482365;31;33979;-64
2023/06/09 01:38:03;;;;;;;4.53;2.47;;;;;;;22.68;62.67;99144.47;4480094;31;35141;-66
2023/06/09 01:40:31;;;;;;;9.52;2.33;;;;;;;22.63;63.02;99140.69;4467466;31;33572;-67
2023/06/09 01:43:01;;;;;;;6.53;2.67;;;;;;;22.66;62.94;99149.28;4480491;32;33517;-70
2023/06/09 01:45:29;;;;;;;4.50;2.45;;;;;;;22.40;63.92;99155.50;4481838;31;34084;-69
2023/06/09 01:47:57;;;;;;;5.03;2.55;;;;;;;22.58;63.20;99162.28;4481923;31;32573;-66
2023/06/09 01:50:31;;;;;;;5.03;2.47;;;;;;;22.61;63.04;99162.72;4483424;31;33264;-64
2023/06/09 01:53:03;;;;;;;11.98;3.28;;;;;;;22.65;62.88;99166.69;4483092;32;32481;-66
2023/06/09 01:55:38;;;;;;;4.72;2.45;;;;;;;22.65;62.90;99155.78;4467912;31;33828;-64
2023/06/09 01:58:18;;;;;;;4.25;2.03;;;;;;;22.64;62.90;99159.56;4482217;31;34616;-67
2023/06/09 02:00:47;;;;;;;3.90;2.33;;;;;;;22.49;63.46;99157.00;4483029;31;33298;-66
2023/06/09 02:03:20;;;;;;;5.87;2.53;;;;;;;22.59;63.25;99167.53;4481009;31;33551;-67
2023/06/09 02:05:49;;;;;;;4.57;2.92;;;;;;;22.55;62.99;99161.66;4482681;31;34942;-67
2023/06/09 02:08:17;;;;;;;12.25;2.92;;;;;;;22.54;62.94;99164.59;4484411;32;33279;-67
2023/06/09 02:10:45;;;;;;;4.35;2.30;;;;;;;22.59;62.93;99163.97;4472245;31;34684;-67
2023/06/09 02:13:17;;;;;;;5.93;2.80;;;;;;;22.50;63.68;99166.91;4481698;31;34928;-68
2023/06/09 02:15:46;;;;;;;5.47;2.87;;;;;;;22.55;63.84;99180.75;4481842;31;33888;-66
2023/06/09 02:18:15;;;;;;;5.50;2.85;;;;;;;22.65;63.73;99169.44;4483681;32;34002;-68
2023/06/09 02:20:42;;;;;;;5.72;3.30;;;;;;;22.58;63.13;99178.66;4481237;31;33544;-69
2023/06/09 02:23:15;;;;;;;4.97;2.72;;;;;;;22.65;62.34;99174.03;4481466;32;33583;-69
2023/06/09 02:25:43;;;;;;;5.15;2.50;;;;;;;22.62;62.29;99178.03;4480643;31;33966;-69
2023/06/09 02:28:10;;;;;;;7.05;3.03;;;;;;;22.67;61.97;99180.97;4480569;31;33336;-67
2023/06/09 02:30:38;;;;;;;4.62;2.92;;;;;;;22.54;62.16;99176.34;4481839;31;35206;-65
2023/06/09 02:33:06;;;;;;;4.97;2.95;;;;;;;22.54;62.11;99180.97;4480205;31;32414;-69
2023/06/09 02:35:34;;;;;;;4.50;2.37;;;;;;;22.59;61.84;99174.88;4482539;31;35027;-67
2023/06/09 02:38:05;;;;;;;7.68;2.12;;;;;;;22.52;62.15;99183.88;4481761;31;33605;-67
2023/06/09 02:40:33;;;;;;;5.60;2.10;;;;;;;22.49;62.08;99184.28;4483293;31;33508;-66
2023/06/09 02:43:01;;;;;;;4.03;1.87;;;;;;;22.49;62.28;99189.72;4478242;31;32461;-65
2023/06/09 02:45:28;;;;;;;4.28;2.37;;;;;;;22.50;62.38;99188.72;4482832;31;34219;-64
2023/06/09 02:47:56;;;;;;;3.67;2.17;;;;;;;22.59;62.32;99189.34;4481793;31;33926;-65
2023/06/09 02:50:24;;;;;;;4.70;2.50;;;;;;;22.60;62.00;99182.00;4482617;31;32983;-66
2023/06/09 02:52:52;;;;;;;5.07;2.25;;;;;;;22.49;62.14;99181.56;4480835;31;32230;-67
2023/06/09 02:55:20;;;;;;;2.72;1.92;;;;;;;;;;4483435;31;33858;-65
2023/06/09 02:57:48;;;;;;;7.40;1.90;;;;;;;22.45;62.15;99184.91;4482812;31;34486;-66
2023/06/09 03:00:17;;;;;;;5.82;2.87;;;;;;;22.45;62.06;99177.56;4480963;31;33861;-64
2023/06/09 03:02:46;;;;;;;4.55;2.17;;;;;;;22.48;62.19;99181.78;4480987;31;34980;-65
2023/06/09 03:05:20;;;;;;;4.75;2.10;;;;;;;22.48;62.05;99181.78;4483969;31;35044;-64
2023/06/09 03:07:49;;;;;;;4.28;2.37;;;;;;;22.36;62.38;99184.25;4481285;31;33630;-64
2023/06/09 03:10:18;;;;;;;7.60;2.28;;;;;;;22.41;62.30;99181.75;4482299;31;33347;-66
2023/06/09 03:12:47;;;;;;;3.33;2.00;;;;;;;22.36;62.45;99175.22;4480679;31;34601;-64
2023/06/09 03:15:16;;;;;;;4.93;2.70;;;;;;;22.36;62.41;99172.50;4481314;31;33825;-65
2023/06/09 03:17:44;;;;;;;7.55;2.50;;;;;;;22.27;62.64;99178.13;4481872;31;34192;-67
2023/06/09 03:20:12;;;;;;;5.53;2.40;;;;;;;22.26;62.53;99176.44;4482600;31;33419;-64
2023/06/09 03:22:41;;;;;;;6.47;2.28;;;;;;;22.13;63.10;99168.19;4480611;31;34655;-63
2023/06/09 03:25:09;;;;;;;4.28;2.10;;;;;;;22.12;63.33;99165.66;4481467;31;33828;-64
2023/06/09 03:27:37;;;;;;;4.93;2.42;;;;;;;22.21;63.00;99169.91;4481304;31;32590;-66
2023/06/09 03:30:06;;;;;;;4.28;2.40;;;;;;;22.21;63.23;99162.59;4481655;31;34354;-64
2023/06/09 03:32:34;;;;;;;4.80;2.28;;;;;;;22.28;62.96;99168.91;4479687;31;32276;-66
2023/06/09 03:35:02;;;;;;;4.55;2.10;;;;;;;22.31;62.94;99168.50;4482037;32;32864;-67
2023/06/09 03:37:30;;;;;;;3.92;2.10;;;;;;;22.31;63.07;99182.16;4483279;32;33765;-67
2023/06/09 03:39:58;;;;;;;5.87;2.37;;;;;;;22.32;63.15;99175.63;4482018;31;33943;-67
2023/06/09 03:42:26;;;;;;;5.82;2.95;;;;;;;22.35;63.32;99171.66;4479332;31;33703;-68
2023/06/09 03:44:58;;;;;;;4.00;2.12;;;;;;;22.38;63.16;99179.44;4480412;31;33117;-67
2023/06/09 03:47:26;;;;;;;7.45;2.30;;;;;;;22.40;63.14;99174.59;4477408;31;34071;-66
2023/06/09 03:49:54;;;;;;;5.85;2.45;;;;;;;22.37;63.18;99174.16;4478036;31;33131;-66
2023/06/09 03:52:22;;;;;;;7.47;2.95;;;;;;;22.40;63.05;99176.50;4482265;31;34446;-66
2023/06/09 03:54:49;;;;;;;3.55;1.65;;;;;;;22.32;63.19;99174.81;4482090;31;33944;-65
2023/06/09 03:57:18;;;;;;;3.90;2.08;;;;;;;22.31;63.09;99178.56;4480236;31;33655;-68
2023/06/09 03:59:45;;;;;;;4.32;2.10;;;;;;;22.24;63.27;99173.06;4479852;31;31984;-67
2023/06/09 04:02:13;;;;;;;4.62;2.10;;;;;;;22.30;63.08;99177.72;4478819;32;32747;-67
2023/06/09 04:04:41;;;;;;;3.72;1.80;;;;;;;22.31;62.96;99184.00;4478834;31;34384;-63
2023/06/09 04:07:10;;;;;;;4.72;2.45;;;;;;;22.34;62.78;99183.59;4481940;31;33950;-64
2023/06/09 04:09:38;;;;;;;3.50;1.67;;;;;;;22.38;62.86;99182.16;4482936;31;34675;-63
2023/06/09 04:12:06;;;;;;;4.35;1.98;;;;;;;22.45;62.73;99187.63;4481512;32;34358;-65
2023/06/09 04:14:33;;;;;;;6.40;2.75;;;;;;;22.46;62.66;99192.03;4478884;32;35221;-64
2023/06/09 04:17:02;;;;;;;3.40;1.90;;;;;;;22.48;62.84;99198.97;4479289;31;35499;-63
2023/06/09 04:19:29;;;;;;;3.65;2.10;;;;;;;22.27;63.56;99189.03;4480181;31;34224;-64
2023/06/09 04:22:04;;;;;;;4.75;2.03;;;;;;;22.45;63.24;99193.09;4481017;31;33965;-64
2023/06/09 04:24:33;;;;;;;5.28;2.67;;;;;;;22.48;63.27;99193.50;4479894;31;35642;-66
2023/06/09 04:27:03;;;;;;;4.47;2.65;;;;;;;22.48;63.27;99184.50;4481172;31;33679;-65
2023/06/09 04:29:34;;;;;;;4.53;2.25;;;;;;;22.43;63.31;99196.00;4482461;31;33308;-64
2023/06/09 04:32:02;;;;;;;5.53;2.10;;;;;;;22.51;62.90;99198.56;4479631;31;33621;-66
2023/06/09 04:34:37;;;;;;;5.00;2.33;;;;;;;22.39;62.63;99204.81;4481452;31;33910;-63
2023/06/09 04:37:08;;;;;;;9.05;2.37;;;;;;;22.42;61.96;99202.50;4480595;31;34816;-63
2023/06/09 04:39:36;;;;;;;5.45;2.25;;;;;;;22.41;61.94;99216.37;4470228;32;32598;-66
2023/06/09 04:42:04;;;;;;;5.95;2.37;;;;;;;22.32;62.41;99211.06;4481336;31;32709;-63
2023/06/09 04:44:32;;;;;;;5.70;2.35;;;;;;;22.37;62.68;99220.53;4482033;32;35270;-64
2023/06/09 04:47:02;;;;;;;3.90;1.85;;;;;;;22.36;62.88;99229.75;4480142;31;34852;-67
2023/06/09 04:49:31;;;;;;;5.53;2.53;;;;;;;22.33;62.57;99223.66;4481624;31;33998;-70
2023/06/09 04:51:59;;;;;;;4.12;2.22;;;;;;;22.42;62.06;99227.06;4477861;31;32704;-67
2023/06/09 04:54:28;;;;;;;7.90;2.17;;;;;;;22.32;62.34;99224.72;4481535;31;35009;-68
2023/06/09 04:56:58;;;;;;;8.82;2.17;;;;;;;22.24;62.62;99229.47;4477630;31;34108;-67
2023/06/09 04:59:28;;;;;;;5.18;2.47;;;;;;;22.22;62.77;99232.44;4482554;31;33442;-67
2023/06/09 05:01:56;;;;;;;4.40;1.92;;;;;;;22.30;62.49;99239.56;4473862;31;34741;-67
2023/06/09 05:04:24;;;;;;;6.95;2.72;;;;;;;22.36;62.55;99236.03;4480872;31;34544;-68
2023/06/09 05:06:52;;;;;;;7.03;2.42;;;;;;;22.39;63.44;99241.09;4479585;31;33732;-66
2023/06/09 05:09:20;;;;;;;4.25;2.22;;;;;;;22.46;63.19;99250.12;4479847;31;33108;-67
2023/06/09 05:11:48;;;;;;;3.53;1.98;;;;;;;22.48;62.73;99253.50;4480123;31;33644;-68
2023/06/09 05:14:17;;;;;;;4.53;1.83;;;;;;;22.54;62.60;99249.13;4480482;31;33956;-65
2023/06/09 05:16:45;;;;;;;4.57;2.55;;;;;;;22.47;63.26;99251.84;4477624;31;34101;-68
2023/06/09 05:19:13;;;;;;;4.72;2.42;;;;;;;22.58;63.16;99247.66;4474888;31;33585;-68
2023/06/09 05:21:45;;;;;;;8.93;2.20;;;;;;;;;;4479711;31;33744;-70
2023/06/09 05:24:13;;;;;;;6.03;3.00;;;;;;;22.51;62.87;99244.09;4478980;31;34532;-67
2023/06/09 05:26:42;;;;;;;13.10;1.92;;;;;;;22.60;62.49;99244.72;4480212;31;33580;-67
2023/06/09 05:29:10;;;;;;;3.87;2.20;;;;;;;22.56;62.90;99241.56;4478869;31;34281;-65
2023/06/09 05:31:38;;;;;;;4.40;2.05;;;;;;;22.63;62.57;99239.72;4481732;31;34604;-68
2023/06/09 05:34:05;;;;;;;15.20;2.33;;;;;;;22.67;62.17;99242.88;4473315;31;32635;-66
2023/06/09 05:36:34;;;;;;;4.00;2.00;;;;;;;22.65;62.38;99243.06;4477376;31;34108;-68
2023/06/09 05:39:01;;;;;;;4.75;1.87;;;;;;;22.64;62.22;99246.03;4481743;31;34332;-65
2023/06/09 05:41:30;;;;;;;3.87;1.92;;;;;;;22.64;62.02;99246.03;4480911;31;33856;-67
2023/06/09 05:43:57;;;;;;;4.72;1.80;;;;;;;22.54;62.00;99247.25;4481942;31;34160;-68
2023/06/09 05:46:25;;;;;;;5.35;2.28;;;;;;;22.59;62.22;99241.16;4478591;31;33634;-66
2023/06/09 05:48:53;;;;;;;4.32;2.37;;;;;;;22.58;62.38;99236.75;4481152;31;33552;-67
2023/06/09 05:51:21;;;;;;;3.28;1.80;;;;;;;22.68;62.10;99233.66;4483649;31;35043;-66
2023/06/09 05:53:48;;;;;;;5.57;1.77;;;;;;;22.69;62.19;99238.03;4483473;32;32858;-66
2023/06/09 05:56:16;;;;;;;4.18;1.95;;;;;;;22.70;62.07;99237.84;4484324;31;34727;-66
2023/06/09 05:58:44;;;;;;;2.55;1.62;;;;;;;22.58;62.68;99235.94;4481583;31;33469;-68
2023/06/09 06:01:15;;;;;;;3.30;1.60;;;;;;;22.61;63.25;99246.44;4479033;31;33649;-67
2023/06/09 06:03:44;;;;;;;3.20;1.48;;;;;;;22.45;63.31;99247.63;4480447;31;33817;-67
2023/06/09 06:06:11;;;;;;;4.47;2.05;;;;;;;22.72;62.23;99245.81;4482820;31;33849;-64
2023/06/09 06:08:39;;;;;;;4.60;2.00;;;;;;;22.77;62.16;99246.06;4484707;31;33293;-67
2023/06/09 06:11:07;;;;;;;5.00;2.53;;;;;;;22.82;62.28;99249.00;4482859;31;33518;-64
2023/06/09 06:13:35;;;;;;;3.97;1.70;;;;;;;22.81;62.43;99241.84;4481855;31;35146;-67
2023/06/09 06:16:03;;;;;;;4.57;2.05;;;;;;;22.89;62.49;99240.81;4481167;31;32716;-70
2023/06/09 06:18:31;;;;;;;4.37;2.40;;;;;;;22.93;62.53;99242.09;4482274;31;31229;-69
2023/06/09 06:20:58;;;;;;;6.28;3.53;;;;;;;22.99;62.23;99244.03;4482953;31;34091;-67
2023/06/09 06:23:26;;;;;;;6.85;3.12;;;;;;;22.96;62.64;99258.94;4478761;32;34359;-67
2023/06/09 06:25:53;;;;;;;12.25;2.80;;;;;;;23.07;62.64;99254.75;4477386;31;32511;-74
2023/06/09 06:28:21;;;;;;;5.75;2.58;;;;;;;23.08;62.48;99264.63;4479457;31;34542;-68
2023/06/09 06:30:50;;;;;;;8.80;3.30;;;;;;;23.14;62.26;99271.97;4482028;31;34902;-69
2023/06/09 06:33:17;;;;;;;5.55;3.55;;;;;;;23.04;62.42;99271.53;4475332;31;35207;-68
2023/06/09 06:35:45;;;;;;;5.28;3.03;;;;;;;23.10;62.20;99270.72;4481174;31;33814;-68
2023/06/09 06:38:12;;;;;;;6.10;3.47;;;;;;;23.18;62.23;99265.06;4477676;31;33605;-69
2023/06/09 06:40:42;;;;;;;10.55;3.53;;;;;;;23.23;62.83;99261.69;4473678;31;33014;-68
2023/06/09 06:43:09;;;;;;;8.68;4.15;;;;;;;23.29;62.80;99258.12;4483590;31;34975;-67
2023/06/09 06:45:41;;;;;;;7.87;3.50;;;;;;;23.34;62.82;99257.50;4481017;31;32532;-67
2023/06/09 06:48:08;;;;;;;11.82;3.92;;;;;;;23.34;62.31;99266.56;4480827;32;32095;-69
2023/06/09 06:50:37;;;;;;;8.13;4.18;;;;;;;23.30;62.57;99267.16;4477052;31;33852;-67
2023/06/09 06:53:05;;;;;;;5.78;3.37;;;;;;;23.10;63.67;99278.91;4480055;32;34836;-68
2023/06/09 06:55:32;;;;;;;8.20;4.35;;;;;;;22.90;64.75;99287.00;4477140;31;32617;-66
2023/06/09 06:58:04;;;;;;;13.48;4.50;;;;;;;23.08;63.92;99285.59;4481845;32;32188;-65
2023/06/09 07:00:34;;;;;;;9.63;4.37;;;;;;;23.03;64.29;99288.97;4479005;31;34038;-68
2023/06/09 07:03:02;;;;;;;6.78;4.78;;;;;;;22.94;64.70;99287.47;4472787;31;34225;-65
2023/06/09 07:05:30;;;;;;;5.60;3.67;;;;;;;22.95;64.48;99283.69;4480006;31;32670;-68
2023/06/09 07:07:57;;;;;;;7.45;4.55;;;;;;;22.91;64.51;99280.50;4481526;31;34666;-68
2023/06/09 07:10:25;;;;;;;7.53;4.50;;;;;;;22.97;64.69;99279.72;4481081;31;33778;-67
2023/06/09 07:12:52;;;;;;;9.50;4.72;;;;;;;23.01;64.56;99282.88;4481722;31;35163;-68
2023/06/09 07:15:20;;;;;;;7.75;5.15;;;;;;;23.07;64.18;99279.31;4479050;31;34349;-67
2023/06/09 07:17:47;;;;;;;11.30;5.62;;;;;;;22.98;64.71;99280.53;4475523;31;32155;-68
2023/06/09 07:20:15;;;;;;;9.05;4.85;;;;;;;22.97;65.68;99282.44;4478427;31;33777;-67
2023/06/09 07:22:46;;;;;;;7.37;4.85;;;;;;;22.93;65.70;99281.19;4478728;31;34463;-68
2023/06/09 07:25:14;;;;;;;7.93;4.87;;;;;;;23.05;65.52;99281.44;4478613;31;33971;-68
2023/06/09 07:27:42;;;;;;;8.07;5.05;;;;;;;23.16;65.01;99278.06;4481879;31;33414;-68
2023/06/09 07:30:10;;;;;;;12.45;5.70;;;;;;;23.14;65.00;99279.31;4480813;32;33957;-68
2023/06/09 07:32:39;;;;;;;14.20;6.35;;;;;;;23.20;64.81;99273.88;4480442;32;34588;-70
2023/06/09 07:35:12;;;;;;;10.73;6.35;;;;;;;22.81;64.88;99279.22;4481411;32;32431;-68
2023/06/09 07:37:42;;;;;;;12.07;6.07;;;;;;;22.90;65.22;99281.56;4475414;31;31777;-68
2023/06/09 07:40:10;;;;;;;16.45;6.43;;;;;;;22.65;66.37;99281.25;4479708;32;33606;-68
2023/06/09 07:42:46;;;;;;;7.95;4.87;;;;;;;22.31;67.18;99279.41;4483931;32;35220;-68
2023/06/09 07:45:14;;;;;;;8.50;4.85;;;;;;;22.05;67.70;99277.34;4483594;31;33351;-68
2023/06/09 07:47:42;;;;;;;8.32;4.82;;;;;;;22.22;67.54;99275.19;4477199;31;33031;-67
2023/06/09 07:50:10;;;;;;;12.35;4.97;;;;;;;22.24;67.56;99282.09;4476139;32;95536;-68
2023/06/09 07:52:38;;;;;;;7.45;3.97;;;;;;;21.81;67.61;99273.22;4474844;32;35342;-68
2023/06/09 07:55:06;;;;;;;3.97;2.40;;;;;;;21.64;66.70;99264.53;4482666;32;34806;-68
2023/06/09 07:57:42;;;;;;;5.85;3.12;;;;;;;22.10;65.57;99267.53;4477408;31;33330;-69
2023/06/09 08:00:11;;;;;;;4.53;2.72;;;;;;;22.02;64.74;99261.41;4481788;31;33998;-67
2023/06/09 08:02:41;;;;;;;7.53;3.92;;;;;;;22.36;63.70;99260.59;4480512;31;33896;-68
2023/06/09 08:05:12;;;;;;;7.97;3.40;;;;;;;22.41;63.99;99257.25;4476932;32;33562;-68
2023/06/09 08:07:39;;;;;;;6.95;3.03;;;;;;;22.58;63.77;99250.41;4478442;31;34556;-68
2023/06/09 08:10:07;;;;;;;7.53;3.97;;;;;;;22.70;63.36;99254.22;4478679;31;33079;-67
2023/06/09 08:12:37;;;;;;;7.78;3.58;;;;;;;22.55;63.85;99262.56;4481248;31;31549;-68
2023/06/09 08:15:05;;;;;;;6.22;3.53;;;;;;;22.73;63.77;99255.72;4479875;32;33997;-69
2023/06/09 08:17:32;;;;;;;6.12;3.83;;;;;;;22.79;64.04;99263.03;4480010;32;33127;-68
2023/06/09 08:20:02;;;;;;;9.02;3.42;;;;;;;22.85;64.29;99258.66;4481420;31;33958;-68
2023/06/09 08:22:30;;;;;;;7.78;3.92;;;;;;;22.93;64.45;99259.34;4477810;31;33816;-68
2023/06/09 08:24:59;;;;;;;6.25;3.87;;;;;;;23.05;64.14;99258.72;4480175;32;34765;-68
2023/06/09 08:27:27;;;;;;;9.95;4.75;;;;;;;23.10;64.00;99257.06;4469890;32;33117;-68
2023/06/09 08:29:55;;;;;;;8.15;5.20;;;;;;;23.09;63.97;99252.66;4480783;32;32802;-70
2023/06/09 08:32:22;;;;;;;10.05;4.78;;;;;;;23.15;64.06;99259.19;4480577;31;34026;-68
2023/06/09 08:34:50;;;;;;;8.85;5.12;;;;;;;23.15;64.96;99260.03;4472300;32;33995;-71
2023/06/09 08:37:18;;;;;;;8.77;4.97;;;;;;;23.30;64.17;99262.53;4478860;32;33093;-74
2023/06/09 08:39:47;;;;;;;9.57;5.55;;;;;;;23.33;63.92;99264.03;4481249;32;34758;-68
2023/06/09 08:42:23;;;;;;;11.77;5.97;;;;;;;23.11;64.07;99260.63;4478220;32;35094;-68
2023/06/09 08:44:55;;;;;;;9.60;5.50;;;;;;;23.23;64.14;99262.53;4479529;31;33829;-74
2023/06/09 08:47:26;;;;;;;10.23;6.55;;;;;;;23.34;63.54;99257.50;4473879;31;32086;-74
2023/06/09 08:49:57;;;;;;;8.10;5.00;;;;;;;23.45;62.79;99263.19;4483022;32;32794;-72
2023/06/09 08:52:26;;;;;;;9.55;5.15;;;;;;;23.58;62.26;99275.16;4479091;32;32490;-75
2023/06/09 08:54:56;;;;;;;9.60;4.97;;;;;;;23.37;62.39;99268.87;4481791;32;33571;-73
2023/06/09 08:57:23;;;;;;;9.10;4.78;;;;;;;23.46;62.12;99273.06;4479790;31;33206;-75
2023/06/09 08:59:52;;;;;;;6.20;4.00;;;;;;;23.60;62.10;99276.66;4479379;31;32623;-75
2023/06/09 09:02:20;;;;;;;5.93;3.28;;;;;;;23.60;62.37;99281.28;4469819;31;32164;-76
2023/06/09 09:04:49;;;;;;;7.78;4.10;;;;;;;23.32;62.51;99276.84;4481881;31;33081;-73
2023/06/09 09:07:16;;;;;;;6.93;3.78;;;;;;;23.22;62.75;99282.72;4471003;31;33749;-72
2023/06/09 09:09:44;;;;;;;6.65;4.35;;;;;;;23.21;62.71;99282.91;4480312;31;33940;-72
2023/06/09 09:12:12;;;;;;;10.27;4.90;;;;;;;23.26;62.46;99280.41;4479487;31;32711;-72
2023/06/09 09:14:42;;;;;;;6.20;3.17;;;;;;;23.45;61.52;99281.47;4481351;31;34029;-71
2023/06/09 09:17:10;;;;;;;7.72;4.47;;;;;;;23.25;61.63;99278.72;4478698;32;33315;-72
2023/06/09 09:19:43;;;;;;;6.78;4.10;;;;;;;23.24;62.36;99277.87;4479059;32;33669;-73
2023/06/09 09:22:11;;;;;;;5.82;4.00;;;;;;;23.39;62.47;99272.22;4473268;31;33799;-72
2023/06/09 09:24:46;;;;;;;8.80;5.05;;;;;;;23.41;62.64;99272.03;4481976;31;33492;-76
2023/06/09 09:27:22;;;;;;;8.25;4.03;;;;;;;23.19;63.43;99277.66;4484351;32;32200;-76
2023/06/09 09:29:50;;;;;;;7.35;3.50;;;;;;;22.56;65.45;99279.75;4478501;31;32740;-71
2023/06/09 09:32:25;;;;;;;6.72;3.55;;;;;;;22.56;64.69;99286.03;4474969;31;33755;-71
2023/06/09 09:34:56;;;;;;;5.82;3.40;;;;;;;22.38;66.43;99279.47;4476988;31;33720;-71
2023/06/09 09:37:24;;;;;;;5.95;3.33;;;;;;;22.55;64.94;99292.53;4475842;32;33261;-69
2023/06/09 09:39:53;;;;;;;10.02;3.60;;;;;;;22.26;65.76;99290.94;4480288;32;33865;-69
2023/06/09 09:42:21;;;;;;;4.72;3.10;;;;;;;22.33;65.90;99286.34;4483966;31;33428;-70
2023/06/09 09:44:52;;;;;;;4.68;3.20;;;;;;;21.86;67.35;99287.94;4482972;31;35303;-69
2023/06/09 09:47:22;;;;;;;4.18;2.03;;;;;;;21.81;66.93;99290.41;4478946;31;33873;-67
2023/06/09 09:49:58;;;;;;;5.32;3.08;;;;;;;22.04;66.07;99287.41;4480607;31;33135;-68
2023/06/09 09:52:27;;;;;;;4.00;2.78;;;;;;;21.98;66.30;99276.47;4480118;32;33801;-68
2023/06/09 09:54:58;;;;;;;11.43;3.70;;;;;;;22.14;66.43;99280.78;4479578;31;33775;-68
2023/06/09 09:57:29;;;;;;;6.28;3.60;;;;;;;21.92;67.31;99280.84;4483532;32;32394;-68
2023/06/09 10:00:00;;;;;;;4.78;2.95;;;;;;;21.84;67.44;99279.13;4475266;31;34147;-67
2023/06/09 10:02:30;;;;;;;6.70;3.17;;;;;;;21.78;67.30;99284.53;4474099;31;33239;-65
2023/06/09 10:05:05;;;;;;;9.02;3.87;;;;;;;21.91;66.92;99279.16;4474643;32;33896;-67
2023/06/09 10:07:38;;;;;;;10.70;3.62;;;;;;;22.00;66.92;99272.53;4480017;31;33446;-67
2023/06/09 10:10:08;;;;;;;6.82;3.03;;;;;;;22.13;66.11;99269.03;4479100;31;34192;-68
2023/06/09 10:12:39;;;;;;;7.05;3.25;;;;;;;22.22;66.38;99267.88;4472516;31;32822;-68
2023/06/09 10:15:10;;;;;;;6.30;2.85;;;;;;;22.35;64.79;99267.09;4472650;32;33842;-69
2023/06/09 10:17:39;;;;;;;6.75;3.67;;;;;;;22.36;65.18;99271.50;4473851;31;33172;-69
2023/06/09 10:20:09;;;;;;;3.58;2.12;;;;;;;22.28;64.95;99272.50;4474002;31;33974;-69
2023/06/09 10:22:36;;;;;;;4.65;2.75;;;;;;;22.32;64.50;99273.78;4482868;31;34102;-69
2023/06/09 10:25:06;;;;;;;6.20;3.20;;;;;;;22.42;64.15;99267.13;4477766;31;33596;-69
2023/06/09 10:27:35;;;;;;;6.25;3.85;;;;;;;22.01;65.73;99265.19;4481857;31;32621;-69
2023/06/09 10:30:03;;;;;;;7.28;3.30;;;;;;;22.27;65.19;99261.78;4476974;31;32117;-70
2023/06/09 10:32:34;;;;;;;5.93;2.92;;;;;;;22.26;65.39;99258.22;4475635;31;33727;-70
2023/06/09 10:35:04;;;;;;;5.62;2.83;;;;;;;22.67;63.79;99256.53;4481062;32;34918;-69
2023/06/09 10:37:33;;;;;;;5.20;3.05;;;;;;;22.42;64.68;99254.31;4481573;31;31746;-70
2023/06/09 10:40:16;;;;;;;4.10;1.70;;;;;;;22.58;64.20;99260.47;4480068;31;33604;-70
2023/06/09 10:43:15;;;;;;;3.33;2.12;;;;;;;22.70;63.15;99267.03;4478249;31;34966;-69
2023/06/09 10:46:01;;;;;;;14.60;2.85;;;;;;;22.78;63.16;99258.62;4481201;31;33836;-69
2023/06/09 10:48:45;;;;;;;3.08;2.00;;;;;;;22.28;63.78;99258.88;4479104;32;33653;-70
2023/06/09 10:51:24;;;;;;;3.55;2.03;;;;;;;22.87;62.88;99260.13;4479476;32;33763;-70
2023/06/09 10:54:12;;;;;;;2.97;2.00;;;;;;;23.09;61.92;99258.12;4482128;31;34958;-70
2023/06/09 10:56:40;;;;;;;5.87;2.62;;;;;;;23.29;60.61;99251.84;4477199;31;33916;-70
2023/06/09 10:59:23;;;;;;;4.00;1.77;;;;;;;23.22;60.39;99249.13;4482245;31;33493;-71
2023/06/09 11:04:37;;;;;;;3.72;2.15;;;;;;;23.13;59.39;99236.72;4483137;31;33084;-69
2023/06/09 11:07:12;;;;;;;4.80;2.42;;;;;;;23.15;59.70;99230.00;4474751;31;33887;-71
2023/06/09 11:10:00;;;;;;;3.95;2.15;;;;;;;22.89;60.62;99227.16;4474814;31;33251;-69
2023/06/09 11:12:45;;;;;;;2.97;1.98;;;;;;;23.21;59.14;99228.28;4477597;31;34010;-69
2023/06/09 11:15:16;;;;;;;3.58;1.95;;;;;;;23.06;59.87;99227.69;4478984;31;35145;-70
2023/06/09 11:17:53;;;;;;;5.50;2.30;;;;;;;23.28;59.62;99223.72;4470997;31;34897;-69
2023/06/09 11:20:23;;;;;;;3.33;1.67;;;;;;;23.36;58.87;99218.00;4474160;32;31977;-68
2023/06/09 11:22:51;;;;;;;4.03;2.33;;;;;;;23.13;58.22;99223.06;4480455;32;32896;-70
2023/06/09 11:25:18;;;;;;;4.25;2.15;;;;;;;23.19;58.76;99220.34;4477771;31;34894;-70
2023/06/09 11:27:48;;;;;;;4.45;1.98;;;;;;;23.28;58.49;99218.25;4478660;31;33831;-69
2023/06/09 11:30:19;;;;;;;3.08;1.73;;;;;;;23.31;57.55;99220.56;4479561;31;34206;-69
2023/06/09 11:32:48;;;;;;;4.50;2.37;;;;;;;23.07;58.79;99223.87;4480501;31;34619;-70
2023/06/09 11:35:27;;;;;;;4.82;2.80;;;;;;;23.17;57.81;99213.41;4478629;32;33598;-69
2023/06/09 11:37:59;;;;;;;4.28;2.05;;;;;;;23.23;58.08;99221.59;4477573;31;34105;-67
2023/06/09 11:40:30;;;;;;;5.15;2.67;;;;;;;23.39;59.06;99220.34;4471468;31;32253;-64
2023/06/09 11:43:00;;;;;;;3.47;1.83;;;;;;;23.45;58.00;99226.84;4474652;32;35032;-65
2023/06/09 11:45:30;;;;;;;4.70;3.17;;;;;;;23.50;57.71;99221.59;4481066;31;32585;-68
2023/06/09 11:47:59;;;;;;;7.82;2.67;;;;;;;23.58;57.74;99215.91;4475128;31;33908;-66
2023/06/09 11:50:45;;;;;;;7.10;3.47;;;;;;;23.54;58.12;99211.09;4468935;31;31458;-66